sensor_id;sensor_type;location;lat;lon;timestamp;P1;durP1;ratioP1;P2;durP2;ratioP2
72369;SDS011;60343;-32.030;115.880;2022-12-11T00:01:19;1.73;;;0.50;;
72369;SDS011;60343;-32.030;115.880;2022-12-11T00:03:47;3.60;;;0.68;;
72369;SDS011;60343;-32.030;115.880;2022-12-11T00:06:16;3.13;;;0.75;;
72369;SDS011;60343;-32.030;115.880;2022-12-11T00:08:45;2.92;;;0.63;;
72369;SDS011;60343;-32.030;115.880;2022-12-11T00:11:21;2.88;;;0.52;;
72369;SDS011;60343;-32.030;115.880;2022-12-11T00:13:49;2.00;;;0.45;;
72369;SDS011;60343;-32.030;115.880;2022-12-11T00:16:17;4.88;;;0.50;;
72369;SDS011;60343;-32.030;115.880;2022-12-11T00:18:45;2.55;;;0.50;;
72369;SDS011;60343;-32.030;115.880;2022-12-11T00:21:13;3.03;;;0.55;;
72369;SDS011;60343;-32.030;115.880;2022-12-11T00:23:40;2.20;;;0.70;;
72369;SDS011;60343;-32.030;115.880;2022-12-11T00:26:09;4.40;;;0.70;;
72369;SDS011;60343;-32.030;115.880;2022-12-11T00:28:44;3.47;;;0.57;;
72369;SDS011;60343;-32.030;115.880;2022-12-11T00:31:12;3.13;;;0.57;;
72369;SDS011;60343;-32.030;115.880;2022-12-11T00:33:41;2.63;;;0.70;;
72369;SDS011;60343;-32.030;115.880;2022-12-11T00:36:10;2.28;;;0.40;;
72369;SDS011;60343;-32.030;115.880;2022-12-11T00:38:39;3.60;;;0.57;;
72369;SDS011;60343;-32.030;115.880;2022-12-11T00:41:07;3.95;;;0.60;;
72369;SDS011;60343;-32.030;115.880;2022-12-11T00:43:35;2.33;;;0.52;;
72369;SDS011;60343;-32.030;115.880;2022-12-11T00:46:08;2.85;;;0.60;;
72369;SDS011;60343;-32.030;115.880;2022-12-11T00:48:36;2.83;;;0.50;;
72369;SDS011;60343;-32.030;115.880;2022-12-11T00:51:04;3.47;;;0.60;;
72369;SDS011;60343;-32.030;115.880;2022-12-11T00:53:33;1.50;;;0.40;;
72369;SDS011;60343;-32.030;115.880;2022-12-11T00:56:00;2.75;;;0.50;;
72369;SDS011;60343;-32.030;115.880;2022-12-11T00:58:33;1.92;;;0.47;;
72369;SDS011;60343;-32.030;115.880;2022-12-11T01:01:10;2.40;;;0.43;;
72369;SDS011;60343;-32.030;115.880;2022-12-11T01:03:39;2.92;;;0.50;;
72369;SDS011;60343;-32.030;115.880;2022-12-11T01:06:13;1.42;;;0.38;;
72369;SDS011;60343;-32.030;115.880;2022-12-11T01:08:41;1.52;;;0.50;;
72369;SDS011;60343;-32.030;115.880;2022-12-11T01:11:09;3.90;;;0.85;;
72369;SDS011;60343;-32.030;115.880;2022-12-11T01:13:40;4.50;;;0.57;;
72369;SDS011;60343;-32.030;115.880;2022-12-11T01:16:14;1.58;;;0.40;;
72369;SDS011;60343;-32.030;115.880;2022-12-11T01:18:42;5.93;;;0.40;;
72369;SDS011;60343;-32.030;115.880;2022-12-11T01:21:11;2.45;;;0.30;;
72369;SDS011;60343;-32.030;115.880;2022-12-11T01:23:39;4.78;;;0.50;;
72369;SDS011;60343;-32.030;115.880;2022-12-11T01:26:07;2.03;;;0.40;;
72369;SDS011;60343;-32.030;115.880;2022-12-11T01:28:36;4.18;;;0.40;;
72369;SDS011;60343;-32.030;115.880;2022-12-11T01:31:07;1.38;;;0.40;;
72369;SDS011;60343;-32.030;115.880;2022-12-11T01:33:43;3.08;;;0.50;;
72369;SDS011;60343;-32.030;115.880;2022-12-11T01:36:14;2.10;;;0.47;;
72369;SDS011;60343;-32.030;115.880;2022-12-11T01:38:43;3.35;;;0.43;;
72369;SDS011;60343;-32.030;115.880;2022-12-11T01:41:12;4.10;;;0.30;;
72369;SDS011;60343;-32.030;115.880;2022-12-11T01:46:28;2.67;;;0.60;;
72369;SDS011;60343;-32.030;115.880;2022-12-11T01:48:57;1.25;;;0.38;;
72369;SDS011;60343;-32.030;115.880;2022-12-11T01:51:26;2.70;;;0.50;;
72369;SDS011;60343;-32.030;115.880;2022-12-11T01:53:56;3.55;;;0.63;;
72369;SDS011;60343;-32.030;115.880;2022-12-11T01:56:27;2.67;;;0.47;;
72369;SDS011;60343;-32.030;115.880;2022-12-11T01:58:58;2.42;;;0.52;;
72369;SDS011;60343;-32.030;115.880;2022-12-11T02:01:35;2.53;;;0.43;;
72369;SDS011;60343;-32.030;115.880;2022-12-11T02:04:05;2.53;;;0.60;;
72369;SDS011;60343;-32.030;115.880;2022-12-11T02:06:35;2.28;;;0.65;;
72369;SDS011;60343;-32.030;115.880;2022-12-11T02:09:04;2.60;;;0.60;;
72369;SDS011;60343;-32.030;115.880;2022-12-11T02:11:37;3.40;;;0.70;;
72369;SDS011;60343;-32.030;115.880;2022-12-11T02:14:12;3.30;;;0.60;;
72369;SDS011;60343;-32.030;115.880;2022-12-11T02:16:52;1.80;;;0.57;;
72369;SDS011;60343;-32.030;115.880;2022-12-11T02:19:32;2.50;;;0.50;;
72369;SDS011;60343;-32.030;115.880;2022-12-11T02:22:15;2.45;;;0.57;;
72369;SDS011;60343;-32.030;115.880;2022-12-11T02:24:51;2.67;;;0.68;;
72369;SDS011;60343;-32.030;115.880;2022-12-11T02:27:30;3.33;;;0.70;;
72369;SDS011;60343;-32.030;115.880;2022-12-11T02:30:08;2.40;;;0.70;;
72369;SDS011;60343;-32.030;115.880;2022-12-11T02:32:37;2.80;;;0.70;;
72369;SDS011;60343;-32.030;115.880;2022-12-11T02:35:11;2.95;;;0.80;;
72369;SDS011;60343;-32.030;115.880;2022-12-11T02:37:44;1.88;;;0.70;;
72369;SDS011;60343;-32.030;115.880;2022-12-11T02:40:14;3.58;;;0.95;;
72369;SDS011;60343;-32.030;115.880;2022-12-11T02:42:46;3.88;;;0.80;;
72369;SDS011;60343;-32.030;115.880;2022-12-11T02:45:21;2.80;;;0.70;;
72369;SDS011;60343;-32.030;115.880;2022-12-11T02:47:52;3.42;;;0.80;;
72369;SDS011;60343;-32.030;115.880;2022-12-11T02:50:23;3.00;;;0.70;;
72369;SDS011;60343;-32.030;115.880;2022-12-11T02:52:53;3.40;;;0.75;;
72369;SDS011;60343;-32.030;115.880;2022-12-11T02:55:22;1.75;;;0.70;;
72369;SDS011;60343;-32.030;115.880;2022-12-11T02:57:54;4.40;;;0.68;;
72369;SDS011;60343;-32.030;115.880;2022-12-11T03:00:33;1.50;;;0.60;;
72369;SDS011;60343;-32.030;115.880;2022-12-11T03:03:03;4.40;;;1.00;;
72369;SDS011;60343;-32.030;115.880;2022-12-11T03:05:31;3.42;;;1.00;;
72369;SDS011;60343;-32.030;115.880;2022-12-11T03:07:58;3.80;;;1.10;;
72369;SDS011;60343;-32.030;115.880;2022-12-11T03:10:27;3.67;;;0.80;;
72369;SDS011;60343;-32.030;115.880;2022-12-11T03:12:54;3.70;;;0.80;;
72369;SDS011;60343;-32.030;115.880;2022-12-11T03:15:26;2.45;;;0.68;;
72369;SDS011;60343;-32.030;115.880;2022-12-11T03:18:08;4.35;;;1.00;;
72369;SDS011;60343;-32.030;115.880;2022-12-11T03:20:42;4.03;;;0.80;;
72369;SDS011;60343;-32.030;115.880;2022-12-11T03:23:15;3.65;;;0.90;;
72369;SDS011;60343;-32.030;115.880;2022-12-11T03:25:49;2.70;;;0.70;;
72369;SDS011;60343;-32.030;115.880;2022-12-11T03:28:22;2.67;;;0.80;;
72369;SDS011;60343;-32.030;115.880;2022-12-11T03:31:00;2.83;;;0.63;;
72369;SDS011;60343;-32.030;115.880;2022-12-11T03:33:35;2.08;;;0.68;;
72369;SDS011;60343;-32.030;115.880;2022-12-11T03:36:06;2.72;;;0.80;;
72369;SDS011;60343;-32.030;115.880;2022-12-11T03:38:39;2.65;;;0.70;;
72369;SDS011;60343;-32.030;115.880;2022-12-11T03:41:11;2.05;;;0.70;;
72369;SDS011;60343;-32.030;115.880;2022-12-11T03:43:45;1.58;;;0.63;;
72369;SDS011;60343;-32.030;115.880;2022-12-11T03:46:35;3.33;;;0.98;;
72369;SDS011;60343;-32.030;115.880;2022-12-11T03:49:05;1.30;;;0.60;;
72369;SDS011;60343;-32.030;115.880;2022-12-11T03:51:35;3.58;;;1.00;;
72369;SDS011;60343;-32.030;115.880;2022-12-11T03:54:04;4.10;;;0.90;;
72369;SDS011;60343;-32.030;115.880;2022-12-11T03:56:33;2.45;;;0.70;;
72369;SDS011;60343;-32.030;115.880;2022-12-11T03:59:03;1.95;;;0.60;;
72369;SDS011;60343;-32.030;115.880;2022-12-11T04:01:36;4.57;;;0.70;;
72369;SDS011;60343;-32.030;115.880;2022-12-11T04:04:04;5.82;;;0.68;;
72369;SDS011;60343;-32.030;115.880;2022-12-11T04:06:40;2.95;;;0.80;;
72369;SDS011;60343;-32.030;115.880;2022-12-11T04:09:09;2.70;;;0.73;;
72369;SDS011;60343;-32.030;115.880;2022-12-11T04:11:44;3.72;;;0.80;;
72369;SDS011;60343;-32.030;115.880;2022-12-11T04:14:12;3.58;;;0.75;;
72369;SDS011;60343;-32.030;115.880;2022-12-11T04:16:46;2.03;;;0.60;;
72369;SDS011;60343;-32.030;115.880;2022-12-11T04:19:13;2.67;;;0.70;;
72369;SDS011;60343;-32.030;115.880;2022-12-11T04:21:44;4.70;;;0.63;;
72369;SDS011;60343;-32.030;115.880;2022-12-11T04:24:12;3.42;;;0.70;;
72369;SDS011;60343;-32.030;115.880;2022-12-11T04:26:40;2.70;;;0.73;;
72369;SDS011;60343;-32.030;115.880;2022-12-11T04:29:09;2.53;;;0.60;;
72369;SDS011;60343;-32.030;115.880;2022-12-11T04:31:36;3.38;;;0.70;;
72369;SDS011;60343;-32.030;115.880;2022-12-11T04:34:12;2.40;;;0.68;;
72369;SDS011;60343;-32.030;115.880;2022-12-11T04:36:40;5.65;;;0.80;;
72369;SDS011;60343;-32.030;115.880;2022-12-11T04:39:08;3.67;;;0.60;;
72369;SDS011;60343;-32.030;115.880;2022-12-11T04:41:36;3.10;;;0.70;;
72369;SDS011;60343;-32.030;115.880;2022-12-11T04:44:03;3.17;;;0.60;;
72369;SDS011;60343;-32.030;115.880;2022-12-11T04:46:34;3.08;;;0.80;;
72369;SDS011;60343;-32.030;115.880;2022-12-11T04:49:08;1.95;;;0.55;;
72369;SDS011;60343;-32.030;115.880;2022-12-11T04:51:35;2.63;;;0.60;;
72369;SDS011;60343;-32.030;115.880;2022-12-11T04:54:03;3.83;;;0.70;;
72369;SDS011;60343;-32.030;115.880;2022-12-11T04:56:31;2.05;;;0.60;;
72369;SDS011;60343;-32.030;115.880;2022-12-11T04:59:01;2.88;;;0.60;;
72369;SDS011;60343;-32.030;115.880;2022-12-11T05:01:29;4.70;;;0.55;;
72369;SDS011;60343;-32.030;115.880;2022-12-11T05:03:58;4.03;;;0.70;;
72369;SDS011;60343;-32.030;115.880;2022-12-11T05:06:31;3.38;;;0.57;;
72369;SDS011;60343;-32.030;115.880;2022-12-11T05:08:59;1.65;;;0.50;;
72369;SDS011;60343;-32.030;115.880;2022-12-11T05:11:26;2.15;;;0.73;;
72369;SDS011;60343;-32.030;115.880;2022-12-11T05:13:54;2.70;;;0.43;;
72369;SDS011;60343;-32.030;115.880;2022-12-11T05:16:22;2.50;;;0.50;;
72369;SDS011;60343;-32.030;115.880;2022-12-11T05:18:49;3.40;;;0.60;;
72369;SDS011;60343;-32.030;115.880;2022-12-11T05:21:17;2.40;;;0.40;;
72369;SDS011;60343;-32.030;115.880;2022-12-11T05:23:50;2.25;;;0.50;;
72369;SDS011;60343;-32.030;115.880;2022-12-11T05:26:18;1.95;;;0.47;;
72369;SDS011;60343;-32.030;115.880;2022-12-11T05:28:49;3.50;;;0.60;;
72369;SDS011;60343;-32.030;115.880;2022-12-11T05:31:18;2.58;;;0.40;;
72369;SDS011;60343;-32.030;115.880;2022-12-11T05:33:46;2.25;;;0.50;;
72369;SDS011;60343;-32.030;115.880;2022-12-11T05:36:15;3.72;;;0.43;;
72369;SDS011;60343;-32.030;115.880;2022-12-11T05:38:51;1.27;;;0.40;;
72369;SDS011;60343;-32.030;115.880;2022-12-11T05:41:19;3.13;;;0.30;;
72369;SDS011;60343;-32.030;115.880;2022-12-11T05:43:48;1.95;;;0.50;;
72369;SDS011;60343;-32.030;115.880;2022-12-11T05:46:17;1.30;;;0.40;;
72369;SDS011;60343;-32.030;115.880;2022-12-11T05:48:46;2.60;;;0.60;;
72369;SDS011;60343;-32.030;115.880;2022-12-11T05:51:15;2.00;;;0.40;;
72369;SDS011;60343;-32.030;115.880;2022-12-11T05:53:43;1.23;;;0.25;;
72369;SDS011;60343;-32.030;115.880;2022-12-11T05:56:18;1.13;;;0.30;;
72369;SDS011;60343;-32.030;115.880;2022-12-11T05:58:47;0.80;;;0.30;;
72369;SDS011;60343;-32.030;115.880;2022-12-11T06:01:16;2.03;;;0.30;;
72369;SDS011;60343;-32.030;115.880;2022-12-11T06:03:45;4.10;;;0.90;;
72369;SDS011;60343;-32.030;115.880;2022-12-11T06:06:13;2.15;;;0.30;;
72369;SDS011;60343;-32.030;115.880;2022-12-11T06:08:42;2.92;;;0.93;;
72369;SDS011;60343;-32.030;115.880;2022-12-11T06:11:16;0.70;;;0.20;;
72369;SDS011;60343;-32.030;115.880;2022-12-11T06:13:45;2.05;;;0.30;;
72369;SDS011;60343;-32.030;115.880;2022-12-11T06:16:13;2.00;;;0.40;;
72369;SDS011;60343;-32.030;115.880;2022-12-11T06:18:41;1.55;;;0.30;;
72369;SDS011;60343;-32.030;115.880;2022-12-11T06:21:10;1.77;;;0.30;;
72369;SDS011;60343;-32.030;115.880;2022-12-11T06:23:39;2.45;;;0.30;;
72369;SDS011;60343;-32.030;115.880;2022-12-11T06:26:07;3.80;;;0.40;;
72369;SDS011;60343;-32.030;115.880;2022-12-11T06:28:41;1.67;;;0.20;;
72369;SDS011;60343;-32.030;115.880;2022-12-11T06:31:09;1.58;;;0.22;;
72369;SDS011;60343;-32.030;115.880;2022-12-11T06:33:37;3.33;;;0.32;;
72369;SDS011;60343;-32.030;115.880;2022-12-11T06:36:05;2.33;;;0.28;;
72369;SDS011;60343;-32.030;115.880;2022-12-11T06:38:35;2.17;;;0.40;;
72369;SDS011;60343;-32.030;115.880;2022-12-11T06:41:03;3.70;;;0.30;;
72369;SDS011;60343;-32.030;115.880;2022-12-11T06:43:32;1.15;;;0.20;;
72369;SDS011;60343;-32.030;115.880;2022-12-11T06:46:08;2.58;;;0.60;;
72369;SDS011;60343;-32.030;115.880;2022-12-11T06:48:37;1.30;;;0.10;;
72369;SDS011;60343;-32.030;115.880;2022-12-11T06:51:05;1.05;;;0.30;;
72369;SDS011;60343;-32.030;115.880;2022-12-11T06:53:37;1.48;;;0.20;;
72369;SDS011;60343;-32.030;115.880;2022-12-11T06:56:05;4.13;;;0.50;;
72369;SDS011;60343;-32.030;115.880;2022-12-11T06:58:34;3.38;;;0.40;;
72369;SDS011;60343;-32.030;115.880;2022-12-11T07:01:11;0.85;;;0.20;;
72369;SDS011;60343;-32.030;115.880;2022-12-11T07:03:41;2.47;;;0.32;;
72369;SDS011;60343;-32.030;115.880;2022-12-11T07:06:09;2.67;;;0.70;;
72369;SDS011;60343;-32.030;115.880;2022-12-11T07:08:37;3.33;;;0.40;;
72369;SDS011;60343;-32.030;115.880;2022-12-11T07:11:05;5.30;;;0.40;;
72369;SDS011;60343;-32.030;115.880;2022-12-11T07:13:34;4.18;;;0.50;;
72369;SDS011;60343;-32.030;115.880;2022-12-11T07:16:07;3.25;;;0.38;;
72369;SDS011;60343;-32.030;115.880;2022-12-11T07:18:37;4.30;;;0.40;;
72369;SDS011;60343;-32.030;115.880;2022-12-11T07:21:06;5.55;;;0.60;;
72369;SDS011;60343;-32.030;115.880;2022-12-11T07:23:35;6.00;;;0.50;;
72369;SDS011;60343;-32.030;115.880;2022-12-11T07:26:05;5.60;;;0.60;;
72369;SDS011;60343;-32.030;115.880;2022-12-11T07:28:35;6.32;;;0.73;;
72369;SDS011;60343;-32.030;115.880;2022-12-11T07:31:10;3.65;;;0.70;;
72369;SDS011;60343;-32.030;115.880;2022-12-11T07:33:39;5.60;;;0.60;;
72369;SDS011;60343;-32.030;115.880;2022-12-11T07:36:08;4.85;;;0.60;;
72369;SDS011;60343;-32.030;115.880;2022-12-11T07:38:36;7.40;;;0.50;;
72369;SDS011;60343;-32.030;115.880;2022-12-11T07:41:05;3.28;;;0.50;;
72369;SDS011;60343;-32.030;115.880;2022-12-11T07:43:33;8.10;;;0.68;;
72369;SDS011;60343;-32.030;115.880;2022-12-11T07:46:02;5.90;;;0.70;;
72369;SDS011;60343;-32.030;115.880;2022-12-11T07:48:36;3.92;;;0.68;;
72369;SDS011;60343;-32.030;115.880;2022-12-11T07:51:08;7.15;;;0.60;;
72369;SDS011;60343;-32.030;115.880;2022-12-11T07:53:37;5.22;;;0.77;;
72369;SDS011;60343;-32.030;115.880;2022-12-11T07:56:05;6.57;;;0.70;;
72369;SDS011;60343;-32.030;115.880;2022-12-11T07:58:33;4.57;;;0.65;;
72369;SDS011;60343;-32.030;115.880;2022-12-11T08:01:01;4.82;;;0.80;;
72369;SDS011;60343;-32.030;115.880;2022-12-11T08:03:28;3.65;;;0.68;;
72369;SDS011;60343;-32.030;115.880;2022-12-11T08:06:03;5.55;;;0.65;;
72369;SDS011;60343;-32.030;115.880;2022-12-11T08:08:31;5.47;;;0.80;;
72369;SDS011;60343;-32.030;115.880;2022-12-11T08:11:00;6.03;;;0.80;;
72369;SDS011;60343;-32.030;115.880;2022-12-11T08:13:28;8.43;;;0.68;;
72369;SDS011;60343;-32.030;115.880;2022-12-11T08:15:56;5.68;;;0.68;;
72369;SDS011;60343;-32.030;115.880;2022-12-11T08:18:24;5.57;;;0.73;;
72369;SDS011;60343;-32.030;115.880;2022-12-11T08:20:57;7.50;;;0.90;;
72369;SDS011;60343;-32.030;115.880;2022-12-11T08:23:24;4.70;;;0.77;;
72369;SDS011;60343;-32.030;115.880;2022-12-11T08:25:52;4.97;;;0.60;;
72369;SDS011;60343;-32.030;115.880;2022-12-11T08:28:23;5.75;;;0.70;;
72369;SDS011;60343;-32.030;115.880;2022-12-11T08:30:50;8.93;;;1.00;;
72369;SDS011;60343;-32.030;115.880;2022-12-11T08:33:18;3.05;;;0.60;;
72369;SDS011;60343;-32.030;115.880;2022-12-11T08:35:46;6.68;;;0.93;;
72369;SDS011;60343;-32.030;115.880;2022-12-11T08:38:19;5.80;;;0.80;;
72369;SDS011;60343;-32.030;115.880;2022-12-11T08:40:47;6.00;;;0.80;;
72369;SDS011;60343;-32.030;115.880;2022-12-11T08:43:14;6.53;;;0.80;;
72369;SDS011;60343;-32.030;115.880;2022-12-11T08:45:42;6.45;;;0.73;;
72369;SDS011;60343;-32.030;115.880;2022-12-11T08:48:11;6.57;;;0.98;;
72369;SDS011;60343;-32.030;115.880;2022-12-11T08:50:38;8.23;;;0.80;;
72369;SDS011;60343;-32.030;115.880;2022-12-11T08:53:06;6.38;;;0.75;;
72369;SDS011;60343;-32.030;115.880;2022-12-11T08:55:39;5.93;;;1.00;;
72369;SDS011;60343;-32.030;115.880;2022-12-11T08:58:07;9.73;;;1.48;;
72369;SDS011;60343;-32.030;115.880;2022-12-11T09:00:35;8.40;;;1.00;;
72369;SDS011;60343;-32.030;115.880;2022-12-11T09:03:03;5.53;;;0.95;;
72369;SDS011;60343;-32.030;115.880;2022-12-11T09:05:30;5.07;;;0.73;;
72369;SDS011;60343;-32.030;115.880;2022-12-11T09:07:58;3.70;;;0.73;;
72369;SDS011;60343;-32.030;115.880;2022-12-11T09:10:26;6.63;;;0.82;;
72369;SDS011;60343;-32.030;115.880;2022-12-11T09:12:59;11.30;;;1.05;;
72369;SDS011;60343;-32.030;115.880;2022-12-11T09:15:26;10.70;;;1.00;;
72369;SDS011;60343;-32.030;115.880;2022-12-11T09:17:54;9.52;;;1.00;;
72369;SDS011;60343;-32.030;115.880;2022-12-11T09:20:22;7.70;;;0.90;;
72369;SDS011;60343;-32.030;115.880;2022-12-11T09:22:49;7.30;;;1.00;;
72369;SDS011;60343;-32.030;115.880;2022-12-11T09:25:17;7.25;;;1.02;;
72369;SDS011;60343;-32.030;115.880;2022-12-11T09:27:45;10.32;;;0.93;;
72369;SDS011;60343;-32.030;115.880;2022-12-11T09:30:19;6.32;;;0.88;;
72369;SDS011;60343;-32.030;115.880;2022-12-11T09:32:46;7.35;;;0.90;;
72369;SDS011;60343;-32.030;115.880;2022-12-11T09:35:14;10.48;;;2.15;;
72369;SDS011;60343;-32.030;115.880;2022-12-11T09:37:42;14.07;;;1.30;;
72369;SDS011;60343;-32.030;115.880;2022-12-11T09:40:10;8.18;;;0.95;;
72369;SDS011;60343;-32.030;115.880;2022-12-11T09:42:42;9.68;;;0.90;;
72369;SDS011;60343;-32.030;115.880;2022-12-11T09:45:22;5.97;;;0.82;;
72369;SDS011;60343;-32.030;115.880;2022-12-11T09:47:50;5.05;;;0.80;;
72369;SDS011;60343;-32.030;115.880;2022-12-11T09:50:21;7.65;;;1.05;;
72369;SDS011;60343;-32.030;115.880;2022-12-11T09:52:53;6.93;;;0.90;;
72369;SDS011;60343;-32.030;115.880;2022-12-11T09:55:28;7.88;;;0.98;;
72369;SDS011;60343;-32.030;115.880;2022-12-11T09:58:05;7.25;;;0.90;;
72369;SDS011;60343;-32.030;115.880;2022-12-11T10:00:46;5.60;;;0.80;;
72369;SDS011;60343;-32.030;115.880;2022-12-11T10:03:24;5.57;;;0.77;;
72369;SDS011;60343;-32.030;115.880;2022-12-11T10:06:11;11.18;;;1.13;;
72369;SDS011;60343;-32.030;115.880;2022-12-11T10:08:48;12.00;;;1.33;;
72369;SDS011;60343;-32.030;115.880;2022-12-11T10:11:29;18.10;;;1.75;;
72369;SDS011;60343;-32.030;115.880;2022-12-11T10:14:25;8.13;;;1.30;;
72369;SDS011;60343;-32.030;115.880;2022-12-11T10:17:08;9.48;;;1.23;;
72369;SDS011;60343;-32.030;115.880;2022-12-11T10:19:40;9.27;;;1.13;;
72369;SDS011;60343;-32.030;115.880;2022-12-11T10:22:11;8.60;;;0.80;;
72369;SDS011;60343;-32.030;115.880;2022-12-11T10:24:46;6.78;;;0.80;;
72369;SDS011;60343;-32.030;115.880;2022-12-11T10:27:19;6.45;;;1.20;;
72369;SDS011;60343;-32.030;115.880;2022-12-11T10:29:50;7.53;;;1.08;;
72369;SDS011;60343;-32.030;115.880;2022-12-11T10:32:31;7.90;;;1.00;;
72369;SDS011;60343;-32.030;115.880;2022-12-11T10:35:03;7.43;;;1.00;;
72369;SDS011;60343;-32.030;115.880;2022-12-11T10:37:32;8.75;;;1.08;;
72369;SDS011;60343;-32.030;115.880;2022-12-11T10:40:00;7.78;;;1.00;;
72369;SDS011;60343;-32.030;115.880;2022-12-11T10:42:28;7.70;;;0.80;;
72369;SDS011;60343;-32.030;115.880;2022-12-11T10:44:56;8.63;;;0.95;;
72369;SDS011;60343;-32.030;115.880;2022-12-11T10:53:47;6.60;;;0.95;;
72369;SDS011;60343;-32.030;115.880;2022-12-11T10:56:23;7.10;;;0.80;;
72369;SDS011;60343;-32.030;115.880;2022-12-11T10:58:52;8.18;;;0.75;;
72369;SDS011;60343;-32.030;115.880;2022-12-11T11:01:23;6.13;;;0.95;;
72369;SDS011;60343;-32.030;115.880;2022-12-11T11:06:48;9.13;;;1.52;;
72369;SDS011;60343;-32.030;115.880;2022-12-11T11:09:33;11.95;;;1.20;;
72369;SDS011;60343;-32.030;115.880;2022-12-11T11:12:01;5.85;;;0.93;;
72369;SDS011;60343;-32.030;115.880;2022-12-11T11:14:29;9.30;;;0.80;;
72369;SDS011;60343;-32.030;115.880;2022-12-11T11:16:57;7.63;;;0.85;;
72369;SDS011;60343;-32.030;115.880;2022-12-11T11:19:28;12.02;;;1.10;;
72369;SDS011;60343;-32.030;115.880;2022-12-11T11:21:58;6.35;;;0.95;;
72369;SDS011;60343;-32.030;115.880;2022-12-11T11:24:35;8.43;;;1.45;;
72369;SDS011;60343;-32.030;115.880;2022-12-11T11:27:11;5.15;;;0.75;;
72369;SDS011;60343;-32.030;115.880;2022-12-11T11:29:46;4.30;;;1.10;;
72369;SDS011;60343;-32.030;115.880;2022-12-11T11:32:18;6.97;;;0.95;;
72369;SDS011;60343;-32.030;115.880;2022-12-11T11:34:48;6.25;;;0.93;;
72369;SDS011;60343;-32.030;115.880;2022-12-11T11:37:23;7.97;;;0.80;;
72369;SDS011;60343;-32.030;115.880;2022-12-11T11:40:02;5.30;;;0.73;;
72369;SDS011;60343;-32.030;115.880;2022-12-11T11:42:37;6.22;;;0.80;;
72369;SDS011;60343;-32.030;115.880;2022-12-11T11:45:13;7.28;;;0.95;;
72369;SDS011;60343;-32.030;115.880;2022-12-11T11:47:47;5.63;;;0.73;;
72369;SDS011;60343;-32.030;115.880;2022-12-11T11:50:24;6.00;;;0.68;;
72369;SDS011;60343;-32.030;115.880;2022-12-11T11:52:56;8.52;;;0.70;;
72369;SDS011;60343;-32.030;115.880;2022-12-11T11:55:36;5.47;;;0.70;;
72369;SDS011;60343;-32.030;115.880;2022-12-11T11:58:11;7.63;;;0.88;;
72369;SDS011;60343;-32.030;115.880;2022-12-11T12:00:43;6.63;;;0.90;;
72369;SDS011;60343;-32.030;115.880;2022-12-11T12:03:11;5.28;;;0.73;;
72369;SDS011;60343;-32.030;115.880;2022-12-11T12:05:43;7.18;;;0.80;;
72369;SDS011;60343;-32.030;115.880;2022-12-11T12:08:20;5.25;;;0.77;;
72369;SDS011;60343;-32.030;115.880;2022-12-11T12:11:06;4.13;;;0.60;;
72369;SDS011;60343;-32.030;115.880;2022-12-11T12:13:48;5.85;;;0.70;;
72369;SDS011;60343;-32.030;115.880;2022-12-11T12:16:27;7.75;;;0.70;;
72369;SDS011;60343;-32.030;115.880;2022-12-11T12:19:06;4.60;;;0.70;;
72369;SDS011;60343;-32.030;115.880;2022-12-11T12:21:42;5.55;;;0.60;;
72369;SDS011;60343;-32.030;115.880;2022-12-11T12:24:16;3.97;;;0.55;;
72369;SDS011;60343;-32.030;115.880;2022-12-11T12:27:12;5.38;;;0.68;;
72369;SDS011;60343;-32.030;115.880;2022-12-11T12:29:45;5.25;;;0.70;;
72369;SDS011;60343;-32.030;115.880;2022-12-11T12:32:22;4.78;;;0.77;;
72369;SDS011;60343;-32.030;115.880;2022-12-11T12:35:02;6.47;;;1.08;;
72369;SDS011;60343;-32.030;115.880;2022-12-11T12:37:44;3.60;;;0.60;;
72369;SDS011;60343;-32.030;115.880;2022-12-11T12:40:24;4.35;;;0.75;;
72369;SDS011;60343;-32.030;115.880;2022-12-11T12:43:03;6.85;;;0.85;;
72369;SDS011;60343;-32.030;115.880;2022-12-11T12:45:40;2.78;;;0.80;;
72369;SDS011;60343;-32.030;115.880;2022-12-11T12:48:14;3.60;;;0.93;;
72369;SDS011;60343;-32.030;115.880;2022-12-11T12:50:43;5.65;;;1.13;;
72369;SDS011;60343;-32.030;115.880;2022-12-11T12:53:16;6.78;;;1.10;;
72369;SDS011;60343;-32.030;115.880;2022-12-11T12:55:45;9.15;;;1.50;;
72369;SDS011;60343;-32.030;115.880;2022-12-11T12:58:39;7.20;;;1.50;;
72369;SDS011;60343;-32.030;115.880;2022-12-11T13:01:12;7.63;;;1.45;;
72369;SDS011;60343;-32.030;115.880;2022-12-11T13:03:49;4.97;;;1.30;;
72369;SDS011;60343;-32.030;115.880;2022-12-11T13:06:29;5.43;;;1.38;;
72369;SDS011;60343;-32.030;115.880;2022-12-11T13:09:10;5.50;;;1.60;;
72369;SDS011;60343;-32.030;115.880;2022-12-11T13:11:41;6.60;;;1.60;;
72369;SDS011;60343;-32.030;115.880;2022-12-11T13:17:06;5.38;;;1.70;;
72369;SDS011;60343;-32.030;115.880;2022-12-11T13:19:50;5.38;;;1.77;;
72369;SDS011;60343;-32.030;115.880;2022-12-11T13:22:47;6.63;;;1.88;;
72369;SDS011;60343;-32.030;115.880;2022-12-11T13:25:20;7.40;;;1.83;;
72369;SDS011;60343;-32.030;115.880;2022-12-11T13:27:50;7.85;;;1.75;;
72369;SDS011;60343;-32.030;115.880;2022-12-11T13:30:27;5.47;;;1.73;;
72369;SDS011;60343;-32.030;115.880;2022-12-11T13:32:58;7.78;;;1.90;;
72369;SDS011;60343;-32.030;115.880;2022-12-11T13:35:28;6.70;;;2.08;;
72369;SDS011;60343;-32.030;115.880;2022-12-11T13:37:59;7.00;;;1.90;;
72369;SDS011;60343;-32.030;115.880;2022-12-11T13:40:33;8.38;;;2.20;;
72369;SDS011;60343;-32.030;115.880;2022-12-11T13:43:07;5.70;;;2.17;;
72369;SDS011;60343;-32.030;115.880;2022-12-11T13:45:49;10.25;;;2.40;;
72369;SDS011;60343;-32.030;115.880;2022-12-11T13:48:20;8.70;;;2.05;;
72369;SDS011;60343;-32.030;115.880;2022-12-11T13:50:52;5.07;;;1.75;;
72369;SDS011;60343;-32.030;115.880;2022-12-11T13:53:22;7.65;;;2.30;;
72369;SDS011;60343;-32.030;115.880;2022-12-11T13:55:56;7.53;;;1.90;;
72369;SDS011;60343;-32.030;115.880;2022-12-11T13:58:25;7.40;;;1.95;;
72369;SDS011;60343;-32.030;115.880;2022-12-11T14:01:06;10.00;;;2.13;;
72369;SDS011;60343;-32.030;115.880;2022-12-11T14:03:38;6.15;;;1.90;;
72369;SDS011;60343;-32.030;115.880;2022-12-11T14:06:08;8.27;;;2.20;;
72369;SDS011;60343;-32.030;115.880;2022-12-11T14:08:38;5.93;;;2.15;;
72369;SDS011;60343;-32.030;115.880;2022-12-11T14:11:12;5.05;;;2.15;;
72369;SDS011;60343;-32.030;115.880;2022-12-11T14:13:48;7.78;;;2.50;;
72369;SDS011;60343;-32.030;115.880;2022-12-11T14:16:24;6.03;;;2.20;;
72369;SDS011;60343;-32.030;115.880;2022-12-11T14:18:53;5.78;;;1.92;;
72369;SDS011;60343;-32.030;115.880;2022-12-11T14:21:23;9.15;;;2.20;;
72369;SDS011;60343;-32.030;115.880;2022-12-11T14:23:51;5.63;;;2.28;;
72369;SDS011;60343;-32.030;115.880;2022-12-11T14:26:21;8.23;;;2.10;;
72369;SDS011;60343;-32.030;115.880;2022-12-11T14:28:50;5.55;;;1.80;;
72369;SDS011;60343;-32.030;115.880;2022-12-11T14:31:26;7.75;;;2.40;;
72369;SDS011;60343;-32.030;115.880;2022-12-11T14:33:57;7.63;;;2.00;;
72369;SDS011;60343;-32.030;115.880;2022-12-11T14:36:28;5.70;;;2.10;;
72369;SDS011;60343;-32.030;115.880;2022-12-11T14:38:57;7.40;;;1.90;;
72369;SDS011;60343;-32.030;115.880;2022-12-11T14:41:28;6.22;;;1.80;;
72369;SDS011;60343;-32.030;115.880;2022-12-11T14:44:04;6.75;;;1.73;;
72369;SDS011;60343;-32.030;115.880;2022-12-11T14:46:44;5.72;;;1.73;;
72369;SDS011;60343;-32.030;115.880;2022-12-11T14:49:16;5.07;;;1.65;;